createdAt,value
2018-04-22T00:00:59.207Z,101206.33
2018-04-22T00:03:26.735Z,101201.75
2018-04-22T00:05:54.257Z,101200.94
2018-04-22T00:08:21.799Z,101193.75
2018-04-22T00:10:49.293Z,101191.16
2018-04-22T00:13:16.771Z,101191.91
2018-04-22T00:15:44.276Z,101193.59
2018-04-22T00:18:11.772Z,101190.20
2018-04-22T00:20:39.269Z,101186.05
2018-04-22T00:23:06.748Z,101189.08
2018-04-22T00:25:34.210Z,101187.75
2018-04-22T00:28:01.685Z,101184.30
2018-04-22T00:30:29.252Z,101181.55
2018-04-22T00:32:56.700Z,101178.55
2018-04-22T00:35:24.205Z,101176.84
2018-04-22T00:37:51.661Z,101178.23
2018-04-22T00:40:19.117Z,101177.03
2018-04-22T00:42:46.646Z,101174.37
2018-04-22T00:45:14.197Z,101170.41
2018-04-22T00:47:41.655Z,101171.11
2018-04-22T00:50:09.157Z,101174.08
2018-04-22T00:52:36.634Z,101170.83
2018-04-22T00:55:04.096Z,101175.80
2018-04-22T00:57:31.565Z,101171.14
2018-04-22T00:59:59.094Z,101172.03
2018-04-22T01:02:26.581Z,101167.82
2018-04-22T01:04:54.043Z,101175.59
2018-04-22T01:07:21.546Z,101175.16
2018-04-22T01:09:49.059Z,101169.55
2018-04-22T01:12:16.549Z,101170.50
2018-04-22T01:14:44.048Z,101173.22
2018-04-22T01:17:11.532Z,101172.78
2018-04-22T01:19:38.998Z,101171.19
2018-04-22T01:22:06.450Z,101165.08
2018-04-22T01:24:33.972Z,101172.03
2018-04-22T01:27:01.439Z,101173.67
2018-04-22T01:29:28.897Z,101168.98
2018-04-22T01:31:56.501Z,101168.77
2018-04-22T01:34:24.048Z,101170.54
2018-04-22T01:36:51.523Z,101173.27
2018-04-22T01:39:18.980Z,101167.09
2018-04-22T01:41:46.480Z,101168.45
2018-04-22T01:44:13.963Z,101170.21
2018-04-22T01:46:41.435Z,101166.53
2018-04-22T01:49:08.916Z,101163.42
2018-04-22T01:51:36.430Z,101167.84
2018-04-22T01:54:03.932Z,101166.02
2018-04-22T01:56:31.404Z,101164.39
2018-04-22T01:58:58.892Z,101164.06
2018-04-22T02:01:26.505Z,101162.70
2018-04-22T02:03:53.959Z,101161.50
2018-04-22T02:06:21.416Z,101159.63
2018-04-22T02:08:48.924Z,101154.47
2018-04-22T02:11:16.395Z,101152.91
2018-04-22T02:13:43.855Z,101149.46
2018-04-22T02:16:11.345Z,101152.30
2018-04-22T02:18:38.902Z,101146.94
2018-04-22T02:21:06.360Z,101146.12
2018-04-22T02:23:33.881Z,101152.57
2018-04-22T02:26:01.380Z,101147.20
2018-04-22T02:28:28.890Z,101143.87
2018-04-22T02:30:56.376Z,101140.83
2018-04-22T02:33:23.879Z,101137.75
2018-04-22T02:35:51.340Z,101133.80
2018-04-22T02:38:18.845Z,101132.98
2018-04-22T02:40:46.347Z,101127.74
2018-04-22T02:43:13.876Z,101127.25
2018-04-22T02:45:41.380Z,101129.31
2018-04-22T02:48:08.844Z,101125.58
2018-04-22T02:50:36.454Z,101123.80
2018-04-22T02:53:03.976Z,101124.39
2018-04-22T02:55:31.492Z,101121.52
2018-04-22T02:57:59.017Z,101118.80
2018-04-22T03:00:26.505Z,101118.07
2018-04-22T03:02:53.967Z,101117.17
2018-04-22T03:05:21.485Z,101113.44
2018-04-22T03:07:48.976Z,101106.34
2018-04-22T03:10:16.428Z,101104.80
2018-04-22T03:12:43.942Z,101104.92
2018-04-22T03:15:11.449Z,101098.67
2018-04-22T03:17:38.906Z,101095.63
2018-04-22T03:20:06.384Z,101105.66
2018-04-22T03:22:33.967Z,101099.28
2018-04-22T03:25:01.454Z,101107.22
2018-04-22T03:27:28.973Z,101103.19
2018-04-22T03:29:56.568Z,101104.34
2018-04-22T03:32:24.075Z,101102.80
2018-04-22T03:34:51.556Z,101097.01
2018-04-22T03:37:19.052Z,101095.38
2018-04-22T03:39:46.587Z,101096.56
2018-04-22T03:42:14.095Z,101088.92
2018-04-22T03:44:41.584Z,101092.48
2018-04-22T03:47:09.079Z,101088.91
2018-04-22T03:49:36.605Z,101092.23
2018-04-22T03:52:04.090Z,101095.64
2018-04-22T03:54:31.596Z,101093.63
2018-04-22T03:56:59.082Z,101092.16
2018-04-22T03:59:26.558Z,101090.59
2018-04-22T04:01:54.084Z,101099.13
2018-04-22T04:04:21.539Z,101095.06
2018-04-22T04:06:49.016Z,101095.04
2018-04-22T04:09:16.536Z,101094.53
2018-04-22T04:11:44.032Z,101088.87
2018-04-22T04:14:11.527Z,101093.77
2018-04-22T04:16:39.189Z,101087.54
2018-04-22T04:19:18.492Z,101094.72
2018-04-22T04:21:57.787Z,101093.27
2018-04-22T04:27:45.817Z,101091.61
2018-04-22T04:30:13.371Z,101097.67
2018-04-22T04:32:40.930Z,101098.48
2018-04-22T04:35:08.436Z,101097.69
2018-04-22T04:37:35.920Z,101093.23
2018-04-22T04:40:03.406Z,101092.08
2018-04-22T04:42:30.888Z,101100.31
2018-04-22T04:44:58.373Z,101103.01
2018-04-22T04:47:25.836Z,101099.77
2018-04-22T04:49:53.348Z,101101.97
2018-04-22T04:52:20.814Z,101100.56
2018-04-22T04:54:48.286Z,101097.95
2018-04-22T04:57:15.776Z,101095.77
2018-04-22T04:59:43.228Z,101098.62
2018-04-22T05:02:10.700Z,101098.50
2018-04-22T05:04:38.190Z,101091.84
2018-04-22T05:07:05.723Z,101093.17
2018-04-22T05:09:33.298Z,101089.45
2018-04-22T05:12:00.817Z,101087.02
2018-04-22T05:14:28.309Z,101084.92
2018-04-22T05:16:55.810Z,101088.05
2018-04-22T05:19:23.265Z,101085.97
2018-04-22T05:21:50.735Z,101087.17
2018-04-22T05:24:18.310Z,101090.11
2018-04-22T05:26:45.838Z,101080.50
2018-04-22T05:29:13.312Z,101086.41
2018-04-22T05:31:40.879Z,101085.61
2018-04-22T05:34:08.358Z,101085.83
2018-04-22T05:36:35.857Z,101080.25
2018-04-22T05:39:03.349Z,101076.28
2018-04-22T05:41:31.060Z,101066.82
2018-04-22T05:43:58.592Z,101078.06
2018-04-22T05:46:26.184Z,101078.84
2018-04-22T05:48:53.740Z,101081.78
2018-04-22T05:51:21.267Z,101077.58
2018-04-22T05:53:48.773Z,101080.41
2018-04-22T05:56:16.256Z,101073.44
2018-04-22T05:58:43.764Z,101074.60
2018-04-22T06:01:11.329Z,101070.67
2018-04-22T06:03:38.836Z,101068.98
2018-04-22T06:06:06.383Z,101067.08
2018-04-22T06:08:33.930Z,101068.55
2018-04-22T06:11:01.356Z,101066.33
2018-04-22T06:13:28.841Z,101061.56
2018-04-22T06:15:56.328Z,101063.29
2018-04-22T06:18:23.837Z,101064.11
2018-04-22T06:20:51.404Z,101061.63
2018-04-22T06:23:18.937Z,101059.63
2018-04-22T06:25:46.421Z,101058.62
2018-04-22T06:28:14.034Z,101055.51
2018-04-22T06:30:41.506Z,101050.65
2018-04-22T06:33:08.974Z,101050.31
2018-04-22T06:35:36.477Z,101050.70
2018-04-22T06:38:03.986Z,101053.27
2018-04-22T06:40:31.499Z,101049.56
2018-04-22T06:42:58.972Z,101050.16
2018-04-22T06:45:26.456Z,101050.04
2018-04-22T06:47:53.947Z,101046.04
2018-04-22T06:50:21.412Z,101047.08
2018-04-22T06:52:48.873Z,101043.82
2018-04-22T06:55:16.318Z,101041.50
2018-04-22T06:57:43.853Z,101038.38
2018-04-22T07:00:11.299Z,101036.61
2018-04-22T07:02:38.774Z,101037.72
2018-04-22T07:05:06.239Z,101033.61
2018-04-22T07:07:33.722Z,101033.54
2018-04-22T07:10:01.221Z,101037.52
2018-04-22T07:12:28.721Z,101031.28
2018-04-22T07:14:56.263Z,101029.85
2018-04-22T07:17:23.751Z,101034.70
2018-04-22T07:19:51.283Z,101034.77
2018-04-22T07:22:18.800Z,101030.06
2018-04-22T07:24:46.297Z,101035.38
2018-04-22T07:27:13.784Z,101029.48
2018-04-22T07:29:41.292Z,101036.44
2018-04-22T07:32:08.808Z,101038.23
2018-04-22T07:34:36.361Z,101038.02
2018-04-22T07:37:03.803Z,101034.22
2018-04-22T07:39:31.279Z,101031.77
2018-04-22T07:41:58.754Z,101032.16
2018-04-22T07:44:26.251Z,101028.95
2018-04-22T07:46:53.815Z,101026.80
2018-04-22T07:49:21.368Z,101023.50
2018-04-22T07:51:48.840Z,101027.77
2018-04-22T07:54:16.292Z,101037.92
2018-04-22T07:56:43.793Z,101029.55
2018-04-22T07:59:11.316Z,101037.80
2018-04-22T08:01:38.828Z,101031.58
2018-04-22T08:04:06.301Z,101033.22
2018-04-22T08:06:33.814Z,101030.08
2018-04-22T08:09:01.280Z,101039.69
2018-04-22T08:11:28.768Z,101034.78
2018-04-22T08:13:56.340Z,101033.27
2018-04-22T08:16:23.828Z,101035.45
2018-04-22T08:18:51.283Z,101029.70
2018-04-22T08:21:18.808Z,101032.45
2018-04-22T08:23:46.289Z,101028.61
2018-04-22T08:26:13.818Z,101026.52
2018-04-22T08:28:41.301Z,101021.58
2018-04-22T08:31:08.760Z,101016.63
2018-04-22T08:33:36.220Z,101011.53
2018-04-22T08:36:03.675Z,101017.28
2018-04-22T08:38:31.144Z,101018.05
2018-04-22T08:40:58.727Z,101021.34
2018-04-22T08:43:26.208Z,101012.54
2018-04-22T08:45:53.728Z,101012.48
2018-04-22T08:48:21.183Z,101018.45
2018-04-22T08:50:48.669Z,101012.66
2018-04-22T08:53:16.218Z,101004.67
2018-04-22T08:55:43.714Z,101005.47
2018-04-22T08:58:11.192Z,101001.61
2018-04-22T09:00:38.660Z,100996.80
2018-04-22T09:03:06.151Z,101000.33
2018-04-22T09:05:33.684Z,100990.80
2018-04-22T09:08:01.257Z,100996.13
2018-04-22T09:10:28.744Z,100989.11
2018-04-22T09:12:56.253Z,100983.82
2018-04-22T09:15:23.740Z,100985.34
2018-04-22T09:17:51.215Z,100987.20
2018-04-22T09:20:18.701Z,100972.67
2018-04-22T09:22:46.187Z,100968.56
2018-04-22T09:25:13.639Z,100957.88
2018-04-22T09:27:41.166Z,100961.42
2018-04-22T09:30:08.630Z,100954.77
2018-04-22T09:32:36.140Z,100960.09
2018-04-22T09:35:03.704Z,100952.16
2018-04-22T09:37:31.161Z,100949.19
2018-04-22T09:39:58.694Z,100951.22
2018-04-22T09:42:26.221Z,100949.39
2018-04-22T09:44:53.736Z,100942.48
2018-04-22T09:47:21.227Z,100939.27
2018-04-22T09:49:48.702Z,100938.39
2018-04-22T09:52:16.608Z,100941.59
2018-04-22T09:54:44.073Z,100931.02
2018-04-22T09:57:11.542Z,100924.81
2018-04-22T09:59:39.033Z,100924.03
2018-04-22T10:02:12.127Z,100914.95
2018-04-22T10:04:39.653Z,100917.95
2018-04-22T10:07:07.202Z,100915.11
2018-04-22T10:09:34.703Z,100911.67
2018-04-22T10:12:02.169Z,100915.36
2018-04-22T10:14:29.616Z,100912.14
2018-04-22T10:16:57.111Z,100913.94
2018-04-22T10:19:24.591Z,100911.42
2018-04-22T10:21:52.085Z,100906.74
2018-04-22T10:24:19.655Z,100919.01
2018-04-22T10:26:47.112Z,100912.91
2018-04-22T10:29:14.601Z,100904.91
2018-04-22T10:31:42.088Z,100903.70
2018-04-22T10:34:09.563Z,100891.56
2018-04-22T10:36:37.066Z,100890.36
2018-04-22T10:39:04.548Z,100890.02
2018-04-22T10:41:32.005Z,100885.97
2018-04-22T10:43:59.483Z,100874.34
2018-04-22T10:46:26.972Z,100866.49
2018-04-22T10:48:54.536Z,100874.64
2018-04-22T10:51:21.999Z,100870.11
2018-04-22T10:53:49.463Z,100870.38
2018-04-22T10:56:16.948Z,100874.09
2018-04-22T10:58:44.467Z,100871.05
2018-04-22T11:01:11.971Z,100866.89
2018-04-22T11:03:39.424Z,100872.30
2018-04-22T11:06:06.957Z,100870.44
2018-04-22T11:08:34.480Z,100868.93
2018-04-22T11:11:02.020Z,100855.42
2018-04-22T11:13:29.477Z,100851.22
2018-04-22T11:15:57.032Z,100851.61
2018-04-22T11:18:24.495Z,100844.87
2018-04-22T11:20:51.950Z,100836.93
2018-04-22T11:23:19.415Z,100838.36
2018-04-22T11:25:46.870Z,100843.42
2018-04-22T11:28:14.368Z,100842.53
2018-04-22T11:30:41.883Z,100839.43
2018-04-22T11:33:09.441Z,100837.11
2018-04-22T11:35:36.891Z,100833.16
2018-04-22T11:38:04.396Z,100832.73
2018-04-22T11:40:31.922Z,100830.66
2018-04-22T11:42:59.496Z,100834.11
2018-04-22T11:45:26.958Z,100834.20
2018-04-22T11:47:54.455Z,100833.09
2018-04-22T11:50:21.970Z,100825.90
2018-04-22T11:52:49.458Z,100824.89
2018-04-22T11:55:16.895Z,100812.80
2018-04-22T11:57:44.529Z,100815.43
2018-04-22T12:00:12.001Z,100822.22
2018-04-22T12:02:39.490Z,100808.52
2018-04-22T12:05:07.032Z,100805.30
2018-04-22T12:07:34.560Z,100809.19
2018-04-22T12:10:02.034Z,100803.81
2018-04-22T12:12:29.528Z,100797.84
2018-04-22T12:14:56.977Z,100798.48
2018-04-22T12:17:24.453Z,100794.06
2018-04-22T12:19:52.057Z,100802.72
2018-04-22T12:22:19.540Z,100801.38
2018-04-22T12:24:47.265Z,100803.81
2018-04-22T12:27:14.776Z,100800.28
2018-04-22T12:29:42.217Z,100800.80
2018-04-22T12:32:09.745Z,100802.15
2018-04-22T12:34:37.213Z,100792.61
2018-04-22T12:37:04.704Z,100788.30
2018-04-22T12:39:32.197Z,100787.41
2018-04-22T12:41:59.768Z,100784.49
2018-04-22T12:44:27.254Z,100781.10
2018-04-22T12:46:54.756Z,100782.75
2018-04-22T12:49:22.256Z,100775.82
2018-04-22T12:51:49.736Z,100772.25
2018-04-22T12:54:17.183Z,100773.64
2018-04-22T12:56:44.685Z,100766.40
2018-04-22T12:59:12.187Z,100764.05
2018-04-22T13:01:39.627Z,100763.23
2018-04-22T13:04:07.140Z,100768.14
2018-04-22T13:06:34.616Z,100766.23
2018-04-22T13:09:02.064Z,100763.53
2018-04-22T13:11:29.564Z,100755.17
2018-04-22T13:13:57.024Z,100745.37
2018-04-22T13:16:24.561Z,100747.58
2018-04-22T13:18:52.046Z,100741.45
2018-04-22T13:21:19.554Z,100735.98
2018-04-22T13:23:47.019Z,100735.85
2018-04-22T13:26:14.575Z,100727.53
2018-04-22T13:28:42.114Z,100722.63
2018-04-22T13:31:09.600Z,100730.95
2018-04-22T13:33:37.197Z,100721.59
2018-04-22T13:36:04.755Z,100710.06
2018-04-22T13:38:32.315Z,100713.69
2018-04-22T13:40:59.840Z,100722.84
2018-04-22T13:43:27.345Z,100707.30
2018-04-22T13:45:54.835Z,100700.03
2018-04-22T13:48:22.325Z,100693.38
2018-04-22T13:50:49.832Z,100687.36
2018-04-22T13:53:17.353Z,100686.36
2018-04-22T13:55:44.921Z,100679.98
2018-04-22T13:58:12.409Z,100674.92
2018-04-22T14:00:39.892Z,100668.63
2018-04-22T14:03:07.384Z,100671.47
2018-04-22T14:05:34.840Z,100669.99
2018-04-22T14:08:02.313Z,100660.98
2018-04-22T14:10:29.802Z,100660.63
2018-04-22T14:12:57.256Z,100655.98
2018-04-22T14:15:24.784Z,100651.36
2018-04-22T14:17:52.325Z,100650.02
2018-04-22T14:20:19.881Z,100647.19
2018-04-22T14:22:47.336Z,100647.77
2018-04-22T14:25:14.885Z,100646.53
2018-04-22T14:27:42.378Z,100643.98
2018-04-22T14:30:09.892Z,100637.42
2018-04-22T14:32:37.472Z,100640.24
2018-04-22T14:35:04.928Z,100633.69
2018-04-22T14:37:32.419Z,100630.68
2018-04-22T14:39:59.899Z,100629.83
2018-04-22T14:42:27.409Z,100630.89
2018-04-22T14:45:06.638Z,100627.63
2018-04-22T14:47:34.143Z,100627.44
2018-04-22T14:50:01.621Z,100621.57
2018-04-22T14:52:29.098Z,100618.48
2018-04-22T14:54:56.697Z,100616.91
2018-04-22T14:57:24.191Z,100614.55
2018-04-22T14:59:51.706Z,100611.69
2018-04-22T15:02:19.198Z,100613.47
2018-04-22T15:04:46.654Z,100613.10
2018-04-22T15:07:14.131Z,100605.91
2018-04-22T15:09:41.612Z,100613.84
2018-04-22T15:12:09.059Z,100607.01
2018-04-22T15:14:36.560Z,100601.35
2018-04-22T15:17:04.019Z,100596.60
2018-04-22T15:19:31.468Z,100598.48
2018-04-22T15:21:58.951Z,100594.14
2018-04-22T15:24:26.461Z,100590.69
2018-04-22T15:26:53.953Z,100585.59
2018-04-22T15:29:21.456Z,100591.95
2018-04-22T15:31:49.053Z,100590.50
2018-04-22T15:34:16.588Z,100586.31
2018-04-22T15:36:44.122Z,100578.68
2018-04-22T15:39:11.686Z,100577.24
2018-04-22T15:41:39.197Z,100572.31
2018-04-22T15:44:06.702Z,100573.83
2018-04-22T15:46:34.151Z,100573.70
2018-04-22T15:49:01.693Z,100562.95
2018-04-22T15:51:29.171Z,100556.00
2018-04-22T15:53:56.619Z,100556.47
2018-04-22T15:56:24.100Z,100554.33
2018-04-22T15:58:51.673Z,100547.17
2018-04-22T16:01:19.156Z,100547.67
2018-04-22T16:03:46.625Z,100540.36
2018-04-22T16:06:14.107Z,100545.83
2018-04-22T16:08:41.595Z,100537.84
2018-04-22T16:11:09.087Z,100549.14
2018-04-22T16:13:36.612Z,100544.06
2018-04-22T16:16:04.267Z,100539.19
2018-04-22T16:18:31.776Z,100536.70
2018-04-22T16:20:59.257Z,100535.05
2018-04-22T16:23:26.780Z,100530.66
2018-04-22T16:25:54.286Z,100525.80
2018-04-22T16:28:21.739Z,100529.00
2018-04-22T16:30:49.208Z,100529.06
2018-04-22T16:33:16.710Z,100528.13
2018-04-22T16:35:44.262Z,100526.94
2018-04-22T16:38:11.829Z,100527.25
2018-04-22T16:40:39.332Z,100527.19
2018-04-22T16:43:06.789Z,100522.17
2018-04-22T16:45:34.405Z,100522.45
2018-04-22T16:48:01.896Z,100524.32
2018-04-22T16:50:29.399Z,100522.47
2018-04-22T16:52:56.882Z,100516.59
2018-04-22T16:55:24.373Z,100513.41
2018-04-22T16:57:51.822Z,100504.87
2018-04-22T17:00:19.300Z,100511.30
2018-04-22T17:02:46.810Z,100511.03
2018-04-22T17:05:14.289Z,100513.03
2018-04-22T17:07:41.809Z,100515.28
2018-04-22T17:10:09.285Z,100511.45
2018-04-22T17:12:36.742Z,100509.89
2018-04-22T17:15:04.258Z,100506.05
2018-04-22T17:17:31.776Z,100504.97
2018-04-22T17:19:59.231Z,100504.64
2018-04-22T17:22:26.729Z,100496.73
2018-04-22T17:24:54.320Z,100504.53
2018-04-22T17:27:21.880Z,100498.70
2018-04-22T17:29:49.348Z,100496.80
2018-04-22T17:32:16.864Z,100497.52
2018-04-22T17:34:44.376Z,100497.89
2018-04-22T17:37:11.927Z,100499.89
2018-04-22T17:39:39.405Z,100496.76
2018-04-22T17:42:06.903Z,100499.46
2018-04-22T17:44:34.405Z,100496.33
2018-04-22T17:47:01.907Z,100494.17
2018-04-22T17:49:29.422Z,100489.82
2018-04-22T17:51:56.898Z,100488.53
2018-04-22T17:54:24.381Z,100489.61
2018-04-22T17:56:51.826Z,100484.52
2018-04-22T17:59:19.280Z,100482.86
2018-04-22T18:01:46.771Z,100486.09
2018-04-22T18:04:14.282Z,100491.16
2018-04-22T18:06:41.774Z,100488.16
2018-04-22T18:09:09.232Z,100487.00
2018-04-22T18:11:36.724Z,100489.78
2018-04-22T18:14:04.329Z,100485.14
2018-04-22T18:16:31.854Z,100477.61
2018-04-22T18:18:59.377Z,100482.33
2018-04-22T18:21:26.912Z,100486.31
2018-04-22T18:23:54.430Z,100484.34
2018-04-22T18:26:21.897Z,100485.97
2018-04-22T18:28:49.394Z,100488.00
2018-04-22T18:31:16.881Z,100487.35
2018-04-22T18:33:44.419Z,100488.00
2018-04-22T18:36:12.006Z,100487.70
2018-04-22T18:38:39.475Z,100485.92
2018-04-22T18:41:06.936Z,100486.59
2018-04-22T18:43:34.495Z,100487.41
2018-04-22T18:46:01.982Z,100485.50
2018-04-22T18:48:29.466Z,100485.20
2018-04-22T18:50:56.992Z,100488.45
2018-04-22T18:53:24.472Z,100493.72
2018-04-22T18:55:51.954Z,100489.81
2018-04-22T18:58:19.456Z,100493.99
2018-04-22T19:00:47.000Z,100489.80
2018-04-22T19:03:14.549Z,100476.59
2018-04-22T19:05:42.068Z,100476.92
2018-04-22T19:08:09.546Z,100476.16
2018-04-22T19:10:37.032Z,100478.53
2018-04-22T19:13:04.581Z,100475.55
2018-04-22T19:15:32.101Z,100478.15
2018-04-22T19:17:59.659Z,100476.86
2018-04-22T19:20:27.119Z,100472.50
2018-04-22T19:22:54.597Z,100474.02
2018-04-22T19:25:22.104Z,100470.78
2018-04-22T19:27:49.584Z,100474.23
2018-04-22T19:30:17.041Z,100478.00
2018-04-22T19:32:44.522Z,100475.98
2018-04-22T19:35:11.968Z,100467.05
2018-04-22T19:37:39.459Z,100465.17
2018-04-22T19:40:06.969Z,100458.91
2018-04-22T19:42:34.465Z,100457.30
2018-04-22T19:45:01.965Z,100450.45
2018-04-22T19:47:29.444Z,100459.56
2018-04-22T19:49:56.950Z,100453.42
2018-04-22T19:52:24.515Z,100448.23
2018-04-22T19:54:51.963Z,100448.11
2018-04-22T19:57:19.554Z,100453.91
2018-04-22T19:59:47.002Z,100459.45
2018-04-22T20:02:14.492Z,100449.74
2018-04-22T20:04:42.003Z,100439.75
2018-04-22T20:07:09.484Z,100440.92
2018-04-22T20:09:36.953Z,100446.99
2018-04-22T20:12:04.480Z,100444.68
2018-04-22T20:14:31.957Z,100451.97
2018-04-22T20:16:59.412Z,100452.81
2018-04-22T20:19:26.949Z,100454.36
2018-04-22T20:21:54.474Z,100450.07
2018-04-22T20:24:21.937Z,100455.73
2018-04-22T20:26:49.508Z,100454.36
2018-04-22T20:29:17.019Z,100452.58
2018-04-22T20:31:44.565Z,100453.70
2018-04-22T20:34:12.056Z,100450.72
2018-04-22T20:36:39.575Z,100453.63
2018-04-22T20:39:07.069Z,100449.98
2018-04-22T20:41:34.588Z,100452.36
2018-04-22T20:44:02.063Z,100452.12
2018-04-22T20:46:29.566Z,100450.34
2018-04-22T20:48:57.069Z,100448.59
2018-04-22T20:51:24.588Z,100445.73
2018-04-22T20:53:52.155Z,100444.26
2018-04-22T20:56:19.720Z,100443.02
2018-04-22T20:58:47.237Z,100442.08
2018-04-22T21:01:14.696Z,100442.52
2018-04-22T21:03:42.161Z,100445.62
2018-04-22T21:06:09.748Z,100439.91
2018-04-22T21:08:37.244Z,100441.08
2018-04-22T21:11:04.734Z,100444.39
2018-04-22T21:13:32.213Z,100438.83
2018-04-22T21:15:59.671Z,100440.36
2018-04-22T21:18:27.133Z,100481.22
2018-04-22T21:20:54.618Z,100586.37
2018-04-22T21:23:22.083Z,100605.06
2018-04-22T21:25:49.566Z,100544.34
2018-04-22T21:28:17.071Z,100542.97
2018-04-22T21:30:44.582Z,100550.11
2018-04-22T21:33:12.032Z,100534.25
2018-04-22T21:35:39.512Z,100541.47
2018-04-22T21:38:07.059Z,100539.39
2018-04-22T21:40:34.579Z,100538.66
2018-04-22T21:43:02.108Z,100530.62
2018-04-22T21:45:29.593Z,100523.86
2018-04-22T21:47:57.126Z,100527.42
2018-04-22T21:50:24.612Z,100523.58
2018-04-22T21:52:52.091Z,100513.87
2018-04-22T21:55:19.620Z,100512.77
2018-04-22T21:57:47.187Z,100510.03
2018-04-22T22:00:14.679Z,100515.00
2018-04-22T22:02:42.189Z,100504.72
2018-04-22T22:05:09.761Z,100507.91
2018-04-22T22:07:37.319Z,100498.69
2018-04-22T22:10:04.794Z,100501.52
2018-04-22T22:12:32.301Z,100498.33
2018-04-22T22:14:59.810Z,100501.69
2018-04-22T22:17:27.287Z,100506.34
2018-04-22T22:19:54.810Z,100496.52
2018-04-22T22:22:22.275Z,100497.05
2018-04-22T22:24:49.800Z,100487.69
2018-04-22T22:27:17.371Z,100473.97
2018-04-22T22:29:44.916Z,100466.69
2018-04-22T22:32:12.442Z,100467.50
2018-04-22T22:34:40.003Z,100464.22
2018-04-22T22:37:07.476Z,100462.32
2018-04-22T22:39:34.955Z,100444.88
2018-04-22T22:42:02.459Z,100451.59
2018-04-22T22:44:29.984Z,100437.89
2018-04-22T22:46:57.548Z,100444.05
2018-04-22T22:49:25.068Z,100440.88
2018-04-22T22:51:52.608Z,100425.88
2018-04-22T22:54:20.086Z,100422.88
2018-04-22T22:56:47.663Z,100418.39
2018-04-22T22:59:15.123Z,100420.36
2018-04-22T23:01:42.576Z,100410.22
2018-04-22T23:04:10.044Z,100411.75
2018-04-22T23:06:37.537Z,100406.13
2018-04-22T23:09:05.790Z,100395.38
2018-04-22T23:11:33.266Z,100390.03
2018-04-22T23:14:00.730Z,100390.52
2018-04-22T23:16:28.183Z,100405.71
2018-04-22T23:18:55.666Z,100389.81
2018-04-22T23:21:23.127Z,100387.64
2018-04-22T23:23:50.618Z,100392.23
2018-04-22T23:26:18.129Z,100384.59
2018-04-22T23:28:45.613Z,100387.56
2018-04-22T23:31:13.312Z,100391.32
2018-04-22T23:33:40.803Z,100384.23
2018-04-22T23:36:08.278Z,100387.27
2018-04-22T23:38:35.760Z,100394.14
2018-04-22T23:41:03.212Z,100392.11
2018-04-22T23:43:30.724Z,100394.17
2018-04-22T23:45:58.260Z,100388.30
2018-04-22T23:48:25.750Z,100380.78
2018-04-22T23:50:53.207Z,100382.09
2018-04-22T23:53:20.686Z,100380.28
2018-04-22T23:55:48.212Z,100376.64
2018-04-22T23:58:15.667Z,100364.75
